sensor_id;sensor_type;location;lat;lon;timestamp;temperature;humidity
20162;DHT22;51382;53.180;15.414;2022-11-09T00:00:23;10.70;99.90
20162;DHT22;51382;53.180;15.414;2022-11-09T00:15:34;10.70;99.90
20162;DHT22;51382;53.180;15.414;2022-11-09T00:30:45;10.60;99.90
20162;DHT22;51382;53.180;15.414;2022-11-09T00:45:56;10.70;99.90
20162;DHT22;51382;53.180;15.414;2022-11-09T01:01:08;10.70;99.90
20162;DHT22;51382;53.180;15.414;2022-11-09T01:16:21;10.70;99.90
20162;DHT22;51382;53.180;15.414;2022-11-09T01:31:33;10.70;99.90
20162;DHT22;51382;53.180;15.414;2022-11-09T01:46:46;10.80;99.90
20162;DHT22;51382;53.180;15.414;2022-11-09T02:02:00;10.50;99.90
20162;DHT22;51382;53.180;15.414;2022-11-09T02:17:13;10.50;99.90
20162;DHT22;51382;53.180;15.414;2022-11-09T02:32:25;10.50;99.90
20162;DHT22;51382;53.180;15.414;2022-11-09T02:47:38;10.50;99.90
20162;DHT22;51382;53.180;15.414;2022-11-09T03:02:49;10.50;99.90
20162;DHT22;51382;53.180;15.414;2022-11-09T03:18:00;10.60;99.90
20162;DHT22;51382;53.180;15.414;2022-11-09T03:33:12;10.40;99.90
20162;DHT22;51382;53.180;15.414;2022-11-09T03:48:23;10.10;99.90
20162;DHT22;51382;53.180;15.414;2022-11-09T04:03:34;9.90;99.90
20162;DHT22;51382;53.180;15.414;2022-11-09T04:18:45;9.60;99.90
20162;DHT22;51382;53.180;15.414;2022-11-09T04:33:56;9.50;99.90
20162;DHT22;51382;53.180;15.414;2022-11-09T04:49:02;9.10;99.90
20162;DHT22;51382;53.180;15.414;2022-11-09T05:04:15;9.00;99.90
20162;DHT22;51382;53.180;15.414;2022-11-09T05:19:25;9.00;99.90
20162;DHT22;51382;53.180;15.414;2022-11-09T05:34:36;8.80;99.90
20162;DHT22;51382;53.180;15.414;2022-11-09T05:49:47;8.70;99.90
20162;DHT22;51382;53.180;15.414;2022-11-09T06:04:53;9.40;99.90
20162;DHT22;51382;53.180;15.414;2022-11-09T06:20:05;9.80;99.90
20162;DHT22;51382;53.180;15.414;2022-11-09T06:35:17;10.10;99.90
20162;DHT22;51382;53.180;15.414;2022-11-09T06:50:24;10.30;99.90
20162;DHT22;51382;53.180;15.414;2022-11-09T07:05:38;10.40;99.90
20162;DHT22;51382;53.180;15.414;2022-11-09T07:20:49;10.40;99.90
20162;DHT22;51382;53.180;15.414;2022-11-09T07:36:00;10.60;99.90
20162;DHT22;51382;53.180;15.414;2022-11-09T07:51:13;10.70;99.90
20162;DHT22;51382;53.180;15.414;2022-11-09T08:06:24;11.20;99.90
20162;DHT22;51382;53.180;15.414;2022-11-09T08:21:36;11.50;99.90
20162;DHT22;51382;53.180;15.414;2022-11-09T08:36:47;11.60;99.90
20162;DHT22;51382;53.180;15.414;2022-11-09T08:51:58;11.60;99.90
20162;DHT22;51382;53.180;15.414;2022-11-09T09:07:09;11.50;99.90
20162;DHT22;51382;53.180;15.414;2022-11-09T09:22:20;11.90;99.90
20162;DHT22;51382;53.180;15.414;2022-11-09T09:37:31;11.50;99.90
20162;DHT22;51382;53.180;15.414;2022-11-09T09:52:43;12.00;99.90
20162;DHT22;51382;53.180;15.414;2022-11-09T10:08:05;12.30;99.90
20162;DHT22;51382;53.180;15.414;2022-11-09T10:23:27;12.40;99.90
20162;DHT22;51382;53.180;15.414;2022-11-09T10:38:49;11.50;99.90
20162;DHT22;51382;53.180;15.414;2022-11-09T10:54:22;11.50;99.90
20162;DHT22;51382;53.180;15.414;2022-11-09T11:09:54;12.00;99.90
20162;DHT22;51382;53.180;15.414;2022-11-09T11:25:24;12.40;99.90
20162;DHT22;51382;53.180;15.414;2022-11-09T11:40:58;12.50;99.90
20162;DHT22;51382;53.180;15.414;2022-11-09T11:56:32;12.50;99.90
20162;DHT22;51382;53.180;15.414;2022-11-09T12:12:10;12.50;99.90
20162;DHT22;51382;53.180;15.414;2022-11-09T12:27:50;12.60;99.90
20162;DHT22;51382;53.180;15.414;2022-11-09T12:43:41;12.40;99.90
20162;DHT22;51382;53.180;15.414;2022-11-09T12:59:20;12.40;99.90
20162;DHT22;51382;53.180;15.414;2022-11-09T13:15:21;12.40;99.90
20162;DHT22;51382;53.180;15.414;2022-11-09T13:30:52;12.30;99.90
20162;DHT22;51382;53.180;15.414;2022-11-09T13:46:28;12.20;99.90
20162;DHT22;51382;53.180;15.414;2022-11-09T14:02:02;12.00;99.90
20162;DHT22;51382;53.180;15.414;2022-11-09T14:17:44;11.90;99.90
20162;DHT22;51382;53.180;15.414;2022-11-09T14:33:23;12.10;99.90
20162;DHT22;51382;53.180;15.414;2022-11-09T14:48:50;12.20;99.90
20162;DHT22;51382;53.180;15.414;2022-11-09T15:04:22;12.10;99.90
20162;DHT22;51382;53.180;15.414;2022-11-09T15:19:53;11.80;99.90
20162;DHT22;51382;53.180;15.414;2022-11-09T15:35:25;11.50;99.90
20162;DHT22;51382;53.180;15.414;2022-11-09T15:50:56;11.10;99.90
20162;DHT22;51382;53.180;15.414;2022-11-09T16:06:26;10.60;99.90
20162;DHT22;51382;53.180;15.414;2022-11-09T16:21:55;12.30;99.90
20162;DHT22;51382;53.180;15.414;2022-11-09T16:37:28;10.50;99.90
20162;DHT22;51382;53.180;15.414;2022-11-09T16:52:57;10.80;99.90
20162;DHT22;51382;53.180;15.414;2022-11-09T17:08:21;11.10;99.90
20162;DHT22;51382;53.180;15.414;2022-11-09T17:23:51;11.20;99.90
20162;DHT22;51382;53.180;15.414;2022-11-09T17:39:22;10.40;99.90
20162;DHT22;51382;53.180;15.414;2022-11-09T17:54:55;10.10;99.90
20162;DHT22;51382;53.180;15.414;2022-11-09T18:10:25;10.00;99.90
20162;DHT22;51382;53.180;15.414;2022-11-09T18:25:58;10.20;99.90
20162;DHT22;51382;53.180;15.414;2022-11-09T18:41:28;9.60;99.90
20162;DHT22;51382;53.180;15.414;2022-11-09T18:56:58;10.10;99.90
20162;DHT22;51382;53.180;15.414;2022-11-09T19:12:27;10.30;99.90
20162;DHT22;51382;53.180;15.414;2022-11-09T19:27:58;10.40;99.90
20162;DHT22;51382;53.180;15.414;2022-11-09T20:16:50;14.80;99.90
20162;DHT22;51382;53.180;15.414;2022-11-09T20:32:28;10.70;99.90
20162;DHT22;51382;53.180;15.414;2022-11-09T20:47:59;10.10;99.90
20162;DHT22;51382;53.180;15.414;2022-11-09T21:03:31;9.90;99.90
20162;DHT22;51382;53.180;15.414;2022-11-09T21:19:01;10.30;99.90
20162;DHT22;51382;53.180;15.414;2022-11-09T21:34:31;10.50;99.90
20162;DHT22;51382;53.180;15.414;2022-11-09T21:50:02;10.50;99.90
20162;DHT22;51382;53.180;15.414;2022-11-09T22:05:32;10.00;99.90
20162;DHT22;51382;53.180;15.414;2022-11-09T22:20:56;9.80;99.90
20162;DHT22;51382;53.180;15.414;2022-11-09T22:36:26;9.80;99.90
20162;DHT22;51382;53.180;15.414;2022-11-09T22:51:55;9.80;99.90
20162;DHT22;51382;53.180;15.414;2022-11-09T23:07:25;9.80;99.90
20162;DHT22;51382;53.180;15.414;2022-11-09T23:22:54;9.80;99.90
20162;DHT22;51382;53.180;15.414;2022-11-09T23:38:24;9.60;99.90
20162;DHT22;51382;53.180;15.414;2022-11-09T23:53:53;9.60;99.90
